Penrod, Kentucky
Current Conditions -  °F | °C
As of 4:35 AM on Saturday 25 Oct 2014 (Local Time) from K2I0 Reporting Station
Overcast Overcast  
Wind Chill: 55°   Ceiling: 4100
Heat Index: 55°   Visibility: 7mi
Dew Point: 55°   Wind: 6mph
Humidity: 99%   Direction: 200°SSW
Pressure: 30.04"   Gusts: NA
Location:  37.11°N, 87°W
Report Text: K2I0 250935Z AUTO 20005KT 7SM BKN041 BKN049 OVC060 13/13 A3004 RMK AO2 T01300129
Loading
Personal Weather Stations






























Interactive Weather Map
Tropical Storm Tracking
New forecast layout! Learn more

10-Day Weather Forecast

Advertisements
Track Severe Weather on mobile